createdAt,value
2019-02-15T00:02:08.136Z,7.33
2019-02-15T00:04:56.729Z,7.34
2019-02-15T00:07:25.980Z,7.36
2019-02-15T00:10:14.633Z,7.20
2019-02-15T00:13:03.267Z,7.27
2019-02-15T00:15:51.868Z,7.25
2019-02-15T00:21:49.413Z,7.26
2019-02-15T00:24:37.972Z,7.16
2019-02-15T00:27:26.621Z,7.31
2019-02-15T00:30:15.200Z,7.31
2019-02-15T00:33:03.809Z,7.18
2019-02-15T00:35:52.398Z,7.09
2019-02-15T00:42:19.972Z,7.03
2019-02-15T00:45:01.628Z,7.07
2019-02-15T00:47:45.100Z,7.29
2019-02-15T00:50:45.494Z,7.23
2019-02-15T00:53:31.134Z,7.39
2019-02-15T00:56:14.660Z,7.37
2019-02-15T00:59:22.347Z,7.34
2019-02-15T01:02:30.068Z,7.29
2019-02-15T01:05:37.747Z,7.46
2019-02-15T01:08:45.448Z,7.45
2019-02-15T01:11:53.125Z,7.45
2019-02-15T01:17:56.394Z,7.57
2019-02-15T01:20:25.628Z,7.55
2019-02-15T01:23:14.216Z,7.60
2019-02-15T01:26:21.913Z,7.61
2019-02-15T01:29:29.605Z,7.50
2019-02-15T01:32:37.294Z,7.40
2019-02-15T01:35:45.003Z,7.50
2019-02-15T01:38:52.727Z,7.54
2019-02-15T01:41:36.200Z,7.46
2019-02-15T01:44:24.541Z,7.42
2019-02-15T01:50:22.070Z,7.32
2019-02-15T01:53:10.617Z,7.01
2019-02-15T01:55:59.203Z,6.85
2019-02-15T01:58:28.473Z,6.84
2019-02-15T02:04:12.723Z,6.92
2019-02-15T02:06:41.926Z,6.59
2019-02-15T02:09:30.498Z,6.58
2019-02-15T02:12:19.074Z,6.80
2019-02-15T02:14:48.302Z,6.58
2019-02-15T02:17:17.532Z,6.71
2019-02-15T02:20:26.856Z,6.61
2019-02-15T02:22:56.097Z,6.42
2019-02-15T02:25:44.682Z,6.41
2019-02-15T02:28:33.382Z,6.27
2019-02-15T02:31:02.632Z,6.42
2019-02-15T02:33:31.848Z,6.33
2019-02-15T02:36:01.141Z,6.30
2019-02-15T02:38:30.382Z,6.11
2019-02-15T02:40:59.600Z,6.24
2019-02-15T02:43:48.233Z,5.95
2019-02-15T02:46:36.782Z,6.05
2019-02-15T02:49:25.360Z,6.16
2019-02-15T02:52:13.942Z,6.19
2019-02-15T02:54:43.196Z,6.09
2019-02-15T02:57:12.413Z,6.06
2019-02-15T02:59:41.638Z,6.09
2019-02-15T03:02:10.873Z,6.08
2019-02-15T03:04:40.103Z,6.03
2019-02-15T03:07:09.651Z,6.23
2019-02-15T03:09:58.276Z,6.12
2019-02-15T03:12:46.835Z,6.17
2019-02-15T03:15:35.025Z,6.13
2019-02-15T03:18:04.238Z,6.16
2019-02-15T03:20:52.851Z,6.03
2019-02-15T03:23:22.085Z,5.89
2019-02-15T03:25:51.318Z,5.87
2019-02-15T03:28:20.542Z,5.97
2019-02-15T03:30:49.770Z,5.81
2019-02-15T03:33:19.000Z,5.70
2019-02-15T03:36:07.367Z,5.71
2019-02-15T03:41:47.494Z,5.56
2019-02-15T03:44:22.190Z,5.42
2019-02-15T03:50:54.430Z,5.50
2019-02-15T03:53:42.990Z,5.42
2019-02-15T03:56:31.574Z,5.39
2019-02-15T03:59:20.190Z,5.49
2019-02-15T04:02:08.775Z,5.78
2019-02-15T04:04:38.020Z,5.91
2019-02-15T04:07:07.237Z,5.55
2019-02-15T04:09:55.799Z,5.34
2019-02-15T04:12:44.381Z,5.42
2019-02-15T04:15:13.703Z,5.58
2019-02-15T04:17:42.930Z,5.49
2019-02-15T04:20:31.504Z,5.40
2019-02-15T04:23:00.730Z,5.22
2019-02-15T04:25:29.966Z,5.08
2019-02-15T04:27:59.247Z,5.28
2019-02-15T04:30:28.472Z,5.33
2019-02-15T04:32:57.692Z,5.35
2019-02-15T04:35:46.334Z,5.47
2019-02-15T04:38:34.903Z,5.30
2019-02-15T04:41:16.359Z,5.09
2019-02-15T04:43:57.666Z,5.36
2019-02-15T04:46:39.210Z,5.44
2019-02-15T04:49:20.824Z,5.41
2019-02-15T04:51:50.056Z,5.65
2019-02-15T04:54:38.608Z,5.50
2019-02-15T04:57:27.264Z,5.51
2019-02-15T05:00:15.832Z,5.66
2019-02-15T05:03:04.407Z,5.65
2019-02-15T05:05:52.968Z,5.67
2019-02-15T05:08:41.556Z,5.17
2019-02-15T05:11:30.126Z,5.26
2019-02-15T05:14:18.688Z,5.18
2019-02-15T05:16:47.927Z,5.24
2019-02-15T05:19:36.509Z,5.42
2019-02-15T05:22:25.089Z,5.46
2019-02-15T05:25:13.666Z,5.42
2019-02-15T05:28:02.251Z,5.14
2019-02-15T05:30:50.805Z,5.13
2019-02-15T05:33:20.053Z,5.38
2019-02-15T05:36:08.607Z,5.41
2019-02-15T05:38:37.855Z,5.24
2019-02-15T05:41:07.085Z,5.49
2019-02-15T05:43:55.656Z,5.32
2019-02-15T05:46:44.221Z,5.32
2019-02-15T05:49:32.835Z,5.53
2019-02-15T05:52:21.406Z,5.41
2019-02-15T05:55:10.026Z,5.47
2019-02-15T05:57:39.246Z,5.17
2019-02-15T06:00:48.511Z,5.26
2019-02-15T06:03:17.752Z,4.89
2019-02-15T06:05:46.971Z,5.22
2019-02-15T06:08:35.533Z,5.36
2019-02-15T06:11:24.109Z,5.14
2019-02-15T06:14:12.678Z,5.36
2019-02-15T06:16:41.915Z,5.47
2019-02-15T06:19:30.490Z,5.33
2019-02-15T06:22:19.055Z,5.47
2019-02-15T06:25:07.674Z,5.10
2019-02-15T06:27:56.238Z,5.01
2019-02-15T06:30:44.837Z,5.29
2019-02-15T06:33:14.064Z,5.14
2019-02-15T06:35:43.291Z,5.93
2019-02-15T06:38:34.734Z,6.04
2019-02-15T06:41:34.175Z,5.74
2019-02-15T06:44:16.136Z,5.44
2019-02-15T06:46:58.072Z,5.35
2019-02-15T06:49:39.295Z,5.37
2019-02-15T06:52:20.694Z,5.16
2019-02-15T06:55:02.141Z,5.10
2019-02-15T06:57:44.121Z,5.26
2019-02-15T07:00:27.729Z,5.52
2019-02-15T07:03:28.745Z,5.26
2019-02-15T07:06:10.754Z,5.20
2019-02-15T07:08:52.235Z,5.26
2019-02-15T07:11:33.536Z,5.37
2019-02-15T07:14:15.443Z,5.16
2019-02-15T07:16:44.688Z,5.36
2019-02-15T07:19:33.320Z,5.40
2019-02-15T07:22:02.580Z,5.51
2019-02-15T07:24:51.129Z,5.25
2019-02-15T07:27:39.777Z,5.29
2019-02-15T07:30:28.344Z,5.43
2019-02-15T07:32:57.585Z,5.37
2019-02-15T07:35:46.163Z,5.58
2019-02-15T07:38:34.821Z,5.64
2019-02-15T07:41:16.116Z,5.60
2019-02-15T07:43:57.815Z,5.69
2019-02-15T07:46:39.614Z,5.86
2019-02-15T07:49:08.835Z,6.09
2019-02-15T07:51:38.053Z,6.19
2019-02-15T07:54:07.639Z,6.37
2019-02-15T07:56:36.854Z,6.32
2019-02-15T07:59:25.470Z,6.53
2019-02-15T08:02:14.047Z,6.77
2019-02-15T08:04:43.293Z,7.39
2019-02-15T08:07:31.877Z,7.97
2019-02-15T08:10:01.136Z,8.60
2019-02-15T08:12:49.695Z,9.01
2019-02-15T08:15:38.275Z,9.23
2019-02-15T08:18:26.843Z,9.43
2019-02-15T08:20:56.080Z,9.76
2019-02-15T08:23:44.647Z,9.78
2019-02-15T08:26:33.236Z,10.06
2019-02-15T08:29:02.462Z,10.49
2019-02-15T08:31:31.707Z,10.83
2019-02-15T08:34:20.274Z,11.09
2019-02-15T08:40:16.427Z,11.76
2019-02-15T08:42:45.672Z,12.41
2019-02-15T08:45:14.922Z,12.63
2019-02-15T08:48:03.495Z,13.03
2019-02-15T08:50:32.737Z,12.88
2019-02-15T08:53:21.310Z,12.04
2019-02-15T08:56:09.907Z,12.82
2019-02-15T08:58:39.128Z,12.65
2019-02-15T09:01:08.381Z,13.03
2019-02-15T09:03:56.947Z,13.17
2019-02-15T09:06:26.203Z,13.04
2019-02-15T09:09:14.761Z,12.85
2019-02-15T09:12:03.342Z,12.47
2019-02-15T09:14:32.564Z,12.46
2019-02-15T09:17:01.817Z,12.76
2019-02-15T09:19:31.048Z,12.75
2019-02-15T09:22:00.280Z,12.82
2019-02-15T09:24:29.496Z,13.04
2019-02-15T09:30:14.155Z,13.23
2019-02-15T09:33:02.707Z,13.45
2019-02-15T09:35:51.049Z,13.67
2019-02-15T09:38:20.295Z,14.29
2019-02-15T09:41:01.393Z,15.11
2019-02-15T09:43:42.712Z,14.45
2019-02-15T09:46:23.863Z,13.95
2019-02-15T09:48:53.112Z,14.01
2019-02-15T09:51:41.672Z,14.16
2019-02-15T09:54:30.257Z,14.03
2019-02-15T09:56:59.497Z,14.00
2019-02-15T09:59:28.730Z,14.00
2019-02-15T10:02:17.317Z,14.70
2019-02-15T10:05:06.682Z,14.17
2019-02-15T10:07:35.909Z,14.04
2019-02-15T10:10:45.242Z,14.08
2019-02-15T10:13:33.844Z,14.31
2019-02-15T10:16:28.636Z,14.12
2019-02-15T10:19:31.835Z,14.05
2019-02-15T10:22:20.388Z,14.08
2019-02-15T10:25:09.238Z,14.35
2019-02-15T10:27:57.886Z,14.35
2019-02-15T10:30:46.471Z,14.58
2019-02-15T10:33:35.045Z,14.64
2019-02-15T10:36:23.670Z,14.70
2019-02-15T10:39:12.254Z,14.57
2019-02-15T10:41:53.603Z,15.32
2019-02-15T10:44:35.154Z,15.22
2019-02-15T10:47:04.369Z,14.83
2019-02-15T10:49:33.630Z,15.11
2019-02-15T10:52:02.861Z,15.24
2019-02-15T10:54:51.459Z,15.28
2019-02-15T10:57:40.035Z,15.19
2019-02-15T11:00:28.647Z,15.02
2019-02-15T11:03:17.246Z,15.07
2019-02-15T11:05:46.483Z,14.96
2019-02-15T11:08:35.037Z,15.07
2019-02-15T11:11:23.651Z,15.15
2019-02-15T11:14:12.216Z,15.39
2019-02-15T11:16:47.223Z,15.33
2019-02-15T11:19:31.497Z,15.71
2019-02-15T11:22:20.081Z,15.54
2019-02-15T11:25:09.526Z,15.56
2019-02-15T11:27:38.777Z,15.71
2019-02-15T11:30:27.356Z,15.55
2019-02-15T11:32:56.596Z,15.62
2019-02-15T11:35:45.179Z,15.66
2019-02-15T11:38:33.766Z,15.67
2019-02-15T11:41:10.886Z,15.83
2019-02-15T11:44:12.419Z,15.86
2019-02-15T11:46:41.675Z,15.88
2019-02-15T11:49:30.249Z,16.15
2019-02-15T11:52:18.949Z,16.01
2019-02-15T11:55:08.300Z,16.10
2019-02-15T11:57:37.528Z,16.08
2019-02-15T12:00:46.770Z,16.15
2019-02-15T12:03:16.009Z,16.19
2019-02-15T12:05:45.261Z,16.27
2019-02-15T12:08:14.483Z,16.28
2019-02-15T12:11:03.122Z,16.29
2019-02-15T12:13:51.687Z,16.30
2019-02-15T12:16:41.993Z,16.42
2019-02-15T12:19:11.228Z,16.33
2019-02-15T12:21:40.445Z,16.48
2019-02-15T12:24:29.017Z,16.48
2019-02-15T12:26:58.327Z,16.55
2019-02-15T12:29:27.631Z,16.52
2019-02-15T12:32:15.961Z,16.57
2019-02-15T12:35:04.599Z,16.64
2019-02-15T12:37:53.186Z,16.66
2019-02-15T12:40:35.146Z,16.78
2019-02-15T12:43:04.374Z,16.80
2019-02-15T12:45:52.935Z,16.96
2019-02-15T12:48:41.534Z,17.05
2019-02-15T12:51:10.772Z,17.39
2019-02-15T12:53:59.354Z,17.24
2019-02-15T12:56:28.597Z,17.32
2019-02-15T12:59:36.596Z,17.37
2019-02-15T13:02:05.809Z,17.35
2019-02-15T13:04:54.382Z,17.40
2019-02-15T13:07:42.963Z,17.41
2019-02-15T13:10:50.663Z,17.39
2019-02-15T13:13:39.278Z,17.26
2019-02-15T13:16:27.861Z,17.35
2019-02-15T13:19:16.422Z,17.44
2019-02-15T13:21:45.654Z,17.37
2019-02-15T13:24:14.902Z,17.42
2019-02-15T13:27:03.460Z,17.51
2019-02-15T13:29:52.057Z,17.39
2019-02-15T13:32:21.272Z,17.36
2019-02-15T13:35:10.847Z,17.29
2019-02-15T13:37:59.499Z,17.22
2019-02-15T13:40:41.405Z,17.38
2019-02-15T13:43:23.045Z,17.30
2019-02-15T13:45:52.274Z,17.21
2019-02-15T13:48:21.516Z,17.15
2019-02-15T13:51:10.165Z,17.13
2019-02-15T13:53:58.780Z,17.10
2019-02-15T13:56:28.003Z,17.15
2019-02-15T13:59:16.568Z,17.00
2019-02-15T14:02:05.333Z,17.08
2019-02-15T14:04:53.908Z,17.17
2019-02-15T14:07:23.156Z,17.13
2019-02-15T14:10:12.418Z,17.06
2019-02-15T14:12:41.731Z,17.13
2019-02-15T14:15:30.318Z,17.16
2019-02-15T14:18:18.884Z,17.01
2019-02-15T14:21:07.464Z,17.01
2019-02-15T14:23:36.710Z,17.04
2019-02-15T14:26:25.277Z,17.01
2019-02-15T14:28:54.530Z,17.09
2019-02-15T14:31:43.181Z,17.12
2019-02-15T14:34:31.981Z,17.11
2019-02-15T14:37:20.580Z,17.08
2019-02-15T14:39:49.823Z,17.06
2019-02-15T14:42:31.104Z,17.08
2019-02-15T14:45:12.359Z,17.06
2019-02-15T14:47:55.254Z,17.15
2019-02-15T14:50:37.332Z,17.16
2019-02-15T14:53:18.825Z,17.09
2019-02-15T14:56:00.044Z,17.08
2019-02-15T14:58:29.267Z,16.94
2019-02-15T15:01:17.853Z,17.05
2019-02-15T15:03:47.147Z,17.02
2019-02-15T15:06:35.701Z,17.08
2019-02-15T15:09:24.285Z,16.96
2019-02-15T15:12:33.573Z,16.88
2019-02-15T15:15:22.162Z,17.00
2019-02-15T15:18:13.125Z,16.99
2019-02-15T15:21:20.178Z,16.92
2019-02-15T15:23:49.431Z,17.03
2019-02-15T15:26:37.978Z,16.84
2019-02-15T15:29:26.550Z,16.96
2019-02-15T15:31:55.778Z,16.80
2019-02-15T15:34:25.011Z,16.70
2019-02-15T15:37:16.400Z,16.71
2019-02-15T15:40:22.943Z,16.65
2019-02-15T15:42:52.184Z,16.51
2019-02-15T15:45:21.404Z,16.54
2019-02-15T15:48:09.983Z,16.45
2019-02-15T15:50:40.180Z,16.70
2019-02-15T15:53:48.669Z,16.54
2019-02-15T15:56:37.259Z,16.45
2019-02-15T15:59:26.310Z,16.46
2019-02-15T16:02:14.887Z,16.39
2019-02-15T16:05:03.552Z,16.26
2019-02-15T16:07:52.149Z,16.25
2019-02-15T16:11:01.425Z,16.12
2019-02-15T16:13:50.060Z,16.16
2019-02-15T16:16:38.646Z,16.19
2019-02-15T16:19:07.883Z,16.07
2019-02-15T16:21:37.122Z,15.99
2019-02-15T16:24:25.730Z,15.99
2019-02-15T16:27:15.771Z,15.92
2019-02-15T16:30:25.117Z,15.94
2019-02-15T16:33:13.823Z,15.83
2019-02-15T16:35:43.059Z,15.92
2019-02-15T16:38:31.638Z,15.83
2019-02-15T16:41:20.318Z,15.67
2019-02-15T16:47:17.862Z,15.52
2019-02-15T16:50:06.978Z,15.29
2019-02-15T16:52:36.229Z,15.25
2019-02-15T16:55:24.782Z,15.16
2019-02-15T16:57:54.020Z,15.19
2019-02-15T17:00:23.299Z,15.07
2019-02-15T17:03:11.974Z,15.00
2019-02-15T17:06:00.593Z,15.06
2019-02-15T17:08:49.176Z,14.84
2019-02-15T17:11:18.399Z,14.84
2019-02-15T17:14:06.977Z,14.70
2019-02-15T17:16:36.237Z,14.75
2019-02-15T17:19:05.502Z,14.62
2019-02-15T17:21:34.948Z,14.58
2019-02-15T17:24:04.201Z,14.54
2019-02-15T17:30:01.788Z,14.40
2019-02-15T17:32:50.381Z,14.15
2019-02-15T17:35:38.974Z,14.05
2019-02-15T17:38:27.561Z,13.95
2019-02-15T17:41:16.104Z,13.98
2019-02-15T17:43:45.350Z,14.08
2019-02-15T17:46:33.932Z,14.04
2019-02-15T17:49:22.567Z,14.30
2019-02-15T17:52:11.148Z,14.03
2019-02-15T17:54:59.783Z,13.84
2019-02-15T17:57:48.350Z,13.65
2019-02-15T18:00:36.982Z,13.45
2019-02-15T18:03:25.533Z,13.46
2019-02-15T18:06:14.102Z,13.54
2019-02-15T18:09:02.698Z,13.67
2019-02-15T18:11:51.265Z,13.40
2019-02-15T18:14:20.512Z,13.40
2019-02-15T18:17:09.128Z,13.30
2019-02-15T18:19:57.698Z,13.74
2019-02-15T18:22:46.273Z,13.44
2019-02-15T18:25:34.849Z,13.19
2019-02-15T18:28:23.436Z,13.19
2019-02-15T18:31:11.933Z,13.16
2019-02-15T18:34:00.494Z,13.09
2019-02-15T18:36:29.747Z,13.10
2019-02-15T18:39:18.322Z,13.01
2019-02-15T18:45:52.044Z,12.99
2019-02-15T18:48:40.851Z,13.04
2019-02-15T18:54:44.618Z,12.88
2019-02-15T19:01:02.182Z,13.04
2019-02-15T19:03:50.755Z,13.07
2019-02-15T19:06:39.374Z,13.11
2019-02-15T19:09:27.966Z,13.15
2019-02-15T19:15:50.003Z,13.12
2019-02-15T19:18:38.629Z,13.02
2019-02-15T19:22:08.653Z,13.08
2019-02-15T19:24:37.895Z,13.05
2019-02-15T19:27:26.774Z,13.00
2019-02-15T19:29:56.015Z,12.91
2019-02-15T19:33:05.390Z,13.12
2019-02-15T19:35:53.954Z,13.00
2019-02-15T19:38:42.577Z,13.11
2019-02-15T19:41:31.166Z,13.82
2019-02-15T19:44:21.188Z,13.84
2019-02-15T19:47:30.565Z,12.96
2019-02-15T19:50:19.150Z,12.99
2019-02-15T19:53:28.417Z,12.89
2019-02-15T19:55:57.643Z,12.87
2019-02-15T19:58:46.294Z,12.86
2019-02-15T20:04:44.837Z,12.80
2019-02-15T20:07:54.206Z,12.89
2019-02-15T20:11:03.479Z,12.82
2019-02-15T20:13:52.437Z,12.82
2019-02-15T20:16:41.009Z,12.85
2019-02-15T20:19:29.596Z,12.72
2019-02-15T20:21:58.812Z,12.64
2019-02-15T20:24:28.047Z,12.83
2019-02-15T20:27:16.631Z,12.88
2019-02-15T20:30:26.107Z,12.68
2019-02-15T20:33:14.676Z,12.58
2019-02-15T20:35:43.901Z,12.68
2019-02-15T20:38:32.470Z,12.58
2019-02-15T20:41:21.058Z,12.60
2019-02-15T20:43:50.329Z,12.59
2019-02-15T20:46:38.932Z,12.42
2019-02-15T20:49:57.503Z,12.40
2019-02-15T20:52:57.548Z,12.31
2019-02-15T21:01:48.154Z,12.13
2019-02-15T21:04:36.789Z,12.20
2019-02-15T21:13:20.742Z,12.06
2019-02-15T21:16:28.464Z,12.01
2019-02-15T21:18:57.752Z,11.97
2019-02-15T21:24:58.760Z,11.84
2019-02-15T21:27:47.333Z,11.87
2019-02-15T21:30:35.924Z,11.83
2019-02-15T21:33:24.607Z,11.78
2019-02-15T21:36:12.937Z,11.72
2019-02-15T21:39:01.557Z,11.64
2019-02-15T21:41:50.312Z,11.74
2019-02-15T21:44:38.894Z,11.67
2019-02-15T21:47:27.868Z,11.61
2019-02-15T21:50:57.933Z,11.45
2019-02-15T21:53:46.518Z,11.55
2019-02-15T21:56:35.127Z,11.47
2019-02-15T22:02:17.737Z,11.46
2019-02-15T22:05:06.421Z,11.43
2019-02-15T22:07:55.154Z,11.31
2019-02-15T22:10:44.428Z,11.18
2019-02-15T22:16:48.100Z,11.28
2019-02-15T22:19:29.890Z,11.20
2019-02-15T22:22:11.908Z,11.12
2019-02-15T22:24:53.240Z,11.09
2019-02-15T22:27:22.469Z,11.13
2019-02-15T22:30:30.437Z,11.03
2019-02-15T22:32:59.672Z,11.00
2019-02-15T22:35:48.309Z,10.92
2019-02-15T22:42:33.118Z,10.85
2019-02-15T22:45:14.453Z,10.88
2019-02-15T22:47:43.705Z,10.88
2019-02-15T22:50:36.065Z,10.91
2019-02-15T22:53:22.320Z,10.90
2019-02-15T22:56:11.049Z,10.92
2019-02-15T22:58:40.271Z,10.80
2019-02-15T23:01:28.957Z,10.73
2019-02-15T23:04:17.529Z,10.73
2019-02-15T23:07:06.135Z,10.69
2019-02-15T23:09:54.711Z,10.71
2019-02-15T23:12:43.289Z,10.70
2019-02-15T23:15:12.513Z,10.60
2019-02-15T23:18:01.309Z,10.60
2019-02-15T23:24:01.680Z,10.67
2019-02-15T23:26:30.920Z,10.62
2019-02-15T23:32:34.607Z,10.58
2019-02-15T23:35:43.919Z,10.55
2019-02-15T23:38:32.479Z,10.48
2019-02-15T23:41:21.436Z,10.50
2019-02-15T23:44:02.752Z,10.48
2019-02-15T23:49:45.162Z,10.34
2019-02-15T23:52:54.415Z,10.40
2019-02-15T23:55:23.653Z,10.43
2019-02-15T23:58:12.221Z,10.31
